Time;durP1;ratioP1;P1;durP2;ratioP2;P2;SDS_P1;SDS_P2;PMS_P1;PMS_P2;Temp;Humidity;BMP_temperature;BMP_pressure;BME280_temperature;BME280_humidity;BME280_pressure;Samples;Min_cycle;Max_cycle;Signal;HPM_P1;HPM_P2
2023/10/17 00:01:33;;;;;;;0.20;0.20;;;8.90;99.90;;;;;;5009503;28;20069;-67
2023/10/17 00:04:11;;;;;;;0.82;0.82;;;8.90;99.90;;;;;;4998591;28;20038;-66
2023/10/17 00:06:37;;;;;;;0.75;0.65;;;8.80;99.90;;;;;;5006051;28;20536;-66
2023/10/17 00:09:06;;;;;;;0.35;0.35;;;8.70;99.90;;;;;;5018663;28;20061;-67
2023/10/17 00:11:44;;;;;;;0.50;0.50;;;8.70;99.90;;;;;;4999540;28;20041;-66
2023/10/17 00:14:11;;;;;;;0.45;0.22;;;8.60;99.90;;;;;;5002506;28;20052;-67
2023/10/17 00:16:37;;;;;;;0.30;0.30;;;8.60;99.90;;;;;;4999913;28;20526;-66
2023/10/17 00:19:09;;;;;;;0.10;0.10;;;8.60;99.90;;;;;;5006060;28;20053;-67
2023/10/17 00:21:41;;;;;;;0.68;0.45;;;8.60;99.90;;;;;;4999765;28;20070;-66
2023/10/17 00:24:10;;;;;;;0.40;0.40;;;8.60;99.90;;;;;;4998407;28;20056;-67
2023/10/17 00:26:40;;;;;;;2.08;1.17;;;8.50;99.90;;;;;;5002015;28;20046;-66
2023/10/17 00:29:10;;;;;;;0.77;0.77;;;8.50;99.90;;;;;;5000605;28;20043;-67
2023/10/17 00:31:37;;;;;;;0.20;0.20;;;8.50;99.90;;;;;;5000795;28;20482;-66
2023/10/17 00:36:50;;;;;;;0.20;0.20;;;8.50;99.90;;;;;;5007090;28;20092;-66
2023/10/17 00:39:29;;;;;;;10.85;1.00;;;8.50;99.90;;;;;;5000889;28;20506;-66
2023/10/17 00:44:34;;;;;;;0.30;0.30;;;8.50;99.90;;;;;;5008328;28;20093;-67
2023/10/17 00:47:04;;;;;;;0.10;0.10;;;8.60;99.90;;;;;;5010769;28;20179;-67
2023/10/17 00:49:40;;;;;;;14.07;1.58;;;8.50;99.90;;;;;;5006074;28;20162;-66
2023/10/17 00:52:15;;;;;;;0.17;0.17;;;8.60;99.90;;;;;;5004979;28;20042;-67
2023/10/17 00:54:42;;;;;;;0.85;0.85;;;8.60;99.90;;;;;;5002304;28;20518;-66
2023/10/17 00:57:09;;;;;;;0.25;0.25;;;8.60;99.90;;;;;;5000296;28;20044;-66
2023/10/17 00:59:35;;;;;;;0.10;0.10;;;8.70;99.90;;;;;;4999339;28;20046;-66
2023/10/17 01:02:08;;;;;;;0.10;0.10;;;8.70;99.90;;;;;;5000045;28;20540;-67
2023/10/17 01:04:40;;;;;;;2.17;1.45;;;8.70;99.90;;;;;;5003048;28;20041;-67
2023/10/17 01:07:06;;;;;;;0.20;0.20;;;8.70;99.90;;;;;;5001842;28;20045;-66
2023/10/17 01:09:35;;;;;;;0.10;0.10;;;8.80;99.90;;;;;;5000617;28;20482;-66
2023/10/17 01:12:03;;;;;;;0.00;0.00;;;8.80;99.90;;;;;;5004552;28;20077;-67
2023/10/17 01:14:32;;;;;;;0.95;0.50;;;8.80;99.90;;;;;;5004156;28;21971;-66
2023/10/17 01:16:58;;;;;;;0.10;0.10;;;8.80;99.90;;;;;;5003760;28;20065;-67
2023/10/17 01:19:24;;;;;;;0.65;0.65;;;8.90;99.90;;;;;;4998118;28;20062;-66
2023/10/17 01:21:49;;;;;;;0.00;0.00;;;8.90;99.90;;;;;;5004912;28;20053;-67
2023/10/17 01:24:15;;;;;;;0.90;0.77;;;8.90;99.90;;;;;;5002230;28;20054;-66
2023/10/17 01:26:45;;;;;;;0.10;0.10;;;8.90;99.90;;;;;;5011207;28;20052;-67
2023/10/17 01:29:11;;;;;;;0.10;0.10;;;8.90;99.90;;;;;;5001177;28;20058;-66
2023/10/17 01:31:43;;;;;;;0.05;0.05;;;8.90;99.90;;;;;;5006930;28;20058;-67
2023/10/17 01:34:11;;;;;;;0.13;0.13;;;8.90;99.90;;;;;;5010398;28;20038;-66
2023/10/17 01:36:37;;;;;;;0.10;0.10;;;8.90;99.90;;;;;;5008851;28;20086;-66
2023/10/17 01:39:09;;;;;;;3.53;1.85;;;8.90;99.90;;;;;;5000214;28;20052;-66
2023/10/17 01:41:36;;;;;;;0.10;0.10;;;8.90;99.90;;;;;;5025551;28;20164;-67
2023/10/17 01:44:02;;;;;;;0.10;0.10;;;8.80;99.90;;;;;;5010628;28;20119;-67
2023/10/17 01:46:31;;;;;;;0.08;0.08;;;8.80;99.90;;;;;;5001294;28;20474;-66
2023/10/17 01:49:00;;;;;;;0.00;0.00;;;8.80;99.90;;;;;;5010771;28;20047;-66
2023/10/17 01:51:27;;;;;;;0.10;0.10;;;8.70;99.90;;;;;;5002567;28;20052;-66
2023/10/17 01:53:53;;;;;;;0.15;0.15;;;8.70;99.90;;;;;;5009970;28;20398;-66
2023/10/17 01:56:26;;;;;;;0.20;0.20;;;8.70;99.90;;;;;;5006458;28;20038;-66
2023/10/17 01:58:55;;;;;;;0.00;0.00;;;8.70;99.90;;;;;;5004964;28;20038;-66
2023/10/17 02:01:25;;;;;;;0.10;0.10;;;8.60;99.90;;;;;;5021972;28;20580;-66
2023/10/17 02:04:03;;;;;;;0.10;0.10;;;8.60;99.90;;;;;;5008232;28;20046;-66
2023/10/17 02:06:30;;;;;;;0.08;0.08;;;8.60;99.90;;;;;;5009665;28;20049;-66
2023/10/17 02:08:58;;;;;;;0.20;0.20;;;8.50;99.90;;;;;;5003296;28;20112;-67
2023/10/17 02:11:24;;;;;;;0.10;0.10;;;8.50;99.90;;;;;;5007844;28;20042;-67
2023/10/17 02:13:56;;;;;;;0.00;0.00;;;8.50;99.90;;;;;;5000858;28;20053;-66
2023/10/17 02:16:29;;;;;;;0.20;0.20;;;8.40;99.90;;;;;;5009724;28;20046;-67
2023/10/17 02:18:58;;;;;;;0.10;0.10;;;8.40;99.90;;;;;;5005719;28;20054;-67
2023/10/17 02:21:27;;;;;;;0.20;0.20;;;8.40;99.90;;;;;;5008172;28;20632;-66
2023/10/17 02:23:53;;;;;;;0.57;0.57;;;8.30;99.90;;;;;;5019051;28;20042;-66
2023/10/17 02:26:23;;;;;;;0.10;0.10;;;8.30;99.90;;;;;;4998293;28;20065;-66
2023/10/17 02:28:50;;;;;;;0.20;0.20;;;8.20;99.90;;;;;;5002036;28;20054;-67
2023/10/17 02:31:16;;;;;;;0.00;0.00;;;8.20;99.90;;;;;;5003477;28;20080;-67
2023/10/17 02:33:43;;;;;;;0.10;0.10;;;8.20;99.90;;;;;;5004555;28;20049;-66
2023/10/17 02:36:12;;;;;;;0.20;0.20;;;8.10;99.90;;;;;;5002350;28;20046;-66
2023/10/17 02:38:39;;;;;;;0.10;0.10;;;8.10;99.90;;;;;;5003092;28;20050;-66
2023/10/17 02:41:08;;;;;;;0.10;0.10;;;8.10;99.90;;;;;;5009646;28;20405;-66
2023/10/17 02:43:37;;;;;;;0.00;0.00;;;8.00;99.90;;;;;;5003917;28;20050;-66
2023/10/17 02:46:04;;;;;;;0.52;0.52;;;8.00;99.90;;;;;;5006612;28;20490;-67
2023/10/17 02:48:37;;;;;;;0.10;0.10;;;8.00;99.90;;;;;;5009674;28;20046;-67
2023/10/17 02:51:03;;;;;;;;;;;7.90;99.90;;;;;;5009164;28;20108;-67
2023/10/17 02:53:34;;;;;;;0.10;0.10;;;7.90;99.90;;;;;;5002489;28;20377;-66
2023/10/17 02:56:18;;;;;;;0.43;0.43;;;7.90;99.90;;;;;;5008269;28;20406;-66
2023/10/17 02:58:50;;;;;;;0.57;0.57;;;7.80;99.90;;;;;;5001435;28;20065;-67
2023/10/17 03:01:22;;;;;;;0.28;0.28;;;7.80;99.90;;;;;;5007103;28;20117;-66
2023/10/17 03:03:50;;;;;;;0.20;0.20;;;7.80;99.90;;;;;;5001274;28;20050;-66
2023/10/17 03:06:18;;;;;;;0.10;0.10;;;7.80;99.90;;;;;;4999269;28;20056;-66
2023/10/17 03:08:50;;;;;;;0.15;0.15;;;7.80;99.90;;;;;;5006912;28;20128;-66
2023/10/17 03:11:17;;;;;;;0.10;0.10;;;7.80;99.90;;;;;;5008588;28;20037;-66
2023/10/17 03:13:44;;;;;;;1.60;0.55;;;7.70;99.90;;;;;;5004572;28;20405;-67
2023/10/17 03:16:31;;;;;;;0.13;0.13;;;7.70;99.90;;;;;;5005402;28;20034;-66
2023/10/17 03:18:57;;;;;;;0.95;0.93;;;7.70;99.90;;;;;;5000097;28;20050;-66
2023/10/17 03:21:35;;;;;;;0.10;0.10;;;7.70;99.90;;;;;;4999489;28;20081;-66
2023/10/17 03:24:04;;;;;;;0.00;0.00;;;7.70;99.90;;;;;;5008214;28;20113;-66
2023/10/17 03:26:39;;;;;;;0.10;0.10;;;7.60;99.90;;;;;;5001101;28;20801;-67
2023/10/17 03:29:14;;;;;;;0.10;0.10;;;7.60;99.90;;;;;;5001668;28;20104;-66
2023/10/17 03:31:41;;;;;;;1.65;1.55;;;7.60;99.90;;;;;;5010041;28;20048;-66
2023/10/17 03:34:12;;;;;;;0.10;0.10;;;7.60;99.90;;;;;;4999440;28;20499;-66
2023/10/17 03:36:41;;;;;;;0.00;0.00;;;7.70;99.90;;;;;;5003664;28;20038;-66
2023/10/17 03:39:27;;;;;;;0.13;0.13;;;7.70;99.90;;;;;;5010006;28;20045;-66
2023/10/17 03:41:59;;;;;;;0.20;0.20;;;7.70;99.90;;;;;;5000330;28;20038;-66
2023/10/17 03:44:31;;;;;;;0.10;0.10;;;7.80;99.90;;;;;;5000596;28;20383;-66
2023/10/17 03:47:04;;;;;;;0.10;0.10;;;7.80;99.90;;;;;;5009515;28;20486;-66
2023/10/17 03:49:36;;;;;;;0.10;0.10;;;7.90;99.90;;;;;;5000668;28;20042;-66
2023/10/17 03:52:06;;;;;;;0.10;0.10;;;7.80;99.90;;;;;;5008984;28;20368;-67
2023/10/17 03:54:38;;;;;;;0.10;0.10;;;7.80;99.90;;;;;;5009485;28;20087;-66
2023/10/17 03:57:15;;;;;;;0.30;0.30;;;7.90;99.90;;;;;;5003678;28;20414;-67
2023/10/17 03:59:41;;;;;;;0.00;0.00;;;8.00;99.90;;;;;;5001020;28;20042;-67
2023/10/17 04:02:12;;;;;;;0.10;0.10;;;7.90;99.90;;;;;;5004831;28;20180;-66
2023/10/17 04:04:48;;;;;;;0.10;0.10;;;7.90;99.90;;;;;;5003428;28;20050;-66
2023/10/17 04:07:13;;;;;;;0.10;0.10;;;7.90;99.90;;;;;;5006286;28;20041;-66
2023/10/17 04:10:17;;;;;;;0.20;0.20;;;7.90;99.90;;;;;;5008674;28;20048;-66
2023/10/17 04:12:48;;;;;;;0.00;0.00;;;7.90;99.90;;;;;;5004657;28;20486;-66
2023/10/17 04:15:18;;;;;;;0.30;0.30;;;8.00;99.90;;;;;;5009956;28;20037;-66
2023/10/17 04:17:46;;;;;;;0.00;0.00;;;8.00;99.90;;;;;;5005572;28;20739;-66
2023/10/17 04:20:12;;;;;;;0.25;0.25;;;8.00;99.90;;;;;;5002234;28;20042;-67
2023/10/17 04:22:44;;;;;;;0.10;0.10;;;8.10;99.90;;;;;;5003903;28;20034;-66
2023/10/17 04:27:54;;;;;;;0.40;0.40;;;8.10;99.90;;;;;;5007478;28;20050;-66
2023/10/17 04:30:29;;;;;;;0.10;0.10;;;8.10;99.90;;;;;;4997219;28;20093;-66
2023/10/17 04:33:05;;;;;;;0.10;0.10;;;8.20;99.90;;;;;;4995229;28;20084;-66
2023/10/17 04:35:32;;;;;;;0.10;0.10;;;8.10;99.90;;;;;;5005457;28;20056;-67
2023/10/17 04:38:19;;;;;;;0.10;0.10;;;8.10;99.90;;;;;;5007397;28;20124;-66
2023/10/17 04:40:53;;;;;;;0.10;0.10;;;8.10;99.90;;;;;;5000077;28;20097;-66
2023/10/17 04:46:08;;;;;;;0.05;0.05;;;8.10;99.90;;;;;;5004397;28;20049;-66
2023/10/17 04:48:35;;;;;;;0.22;0.22;;;8.10;99.90;;;;;;5002062;28;20042;-66
2023/10/17 04:53:49;;;;;;;0.10;0.10;;;8.10;99.90;;;;;;4998018;28;20112;-66
2023/10/17 04:56:17;;;;;;;0.10;0.10;;;8.10;99.90;;;;;;4999699;28;20046;-67
2023/10/17 04:59:01;;;;;;;0.10;0.10;;;8.20;99.90;;;;;;5002838;28;20046;-66
2023/10/17 05:04:18;;;;;;;0.10;0.10;;;8.20;99.90;;;;;;5003881;28;20038;-67
2023/10/17 06:17:48;;;;;;;0.10;0.10;;;8.00;99.90;;;;;;5004284;28;20422;-66
2023/10/17 06:20:16;;;;;;;0.75;0.75;;;8.00;99.90;;;;;;5003829;28;20038;-67
2023/10/17 06:28:34;;;;;;;0.20;0.20;;;7.90;99.90;;;;;;5003761;28;20038;-67
2023/10/17 06:31:56;;;;;;;0.55;0.47;;;7.90;99.90;;;;;;5004060;28;20076;-67
2023/10/17 06:34:00;;;;;;;0.20;0.20;;;7.90;99.90;;;;;;4986953;28;20082;-67
2023/10/17 06:36:28;;;;;;;0.10;0.10;;;7.80;99.90;;;;;;5006763;28;20081;-67
2023/10/17 06:38:54;;;;;;;3.22;0.57;;;7.80;99.90;;;;;;5002768;28;20042;-66
2023/10/17 06:41:38;;;;;;;0.43;0.43;;;7.80;99.90;;;;;;5007197;28;20061;-66
2023/10/17 06:44:10;;;;;;;0.17;0.17;;;7.70;99.90;;;;;;5009823;28;20045;-67
2023/10/17 06:46:55;;;;;;;0.20;0.20;;;7.80;99.90;;;;;;5001105;28;20076;-67
2023/10/17 06:54:43;;;;;;;0.20;0.20;;;7.90;99.90;;;;;;5003572;28;20057;-66
2023/10/17 06:57:24;;;;;;;1.08;0.98;;;7.90;99.90;;;;;;5004392;28;20125;-67
2023/10/17 06:59:52;;;;;;;0.10;0.10;;;7.90;99.90;;;;;;5008704;28;20057;-67
2023/10/17 07:02:34;;;;;;;0.00;0.00;;;8.00;99.90;;;;;;5002633;28;20061;-67
2023/10/17 07:05:01;;;;;;;0.20;0.20;;;8.00;99.90;;;;;;5007120;28;20039;-66
2023/10/17 07:07:40;;;;;;;0.52;0.52;;;8.10;99.90;;;;;;5004090;28;20049;-66
2023/10/17 07:13:32;;;;;;;0.10;0.10;;;8.10;99.90;;;;;;5006586;28;20049;-67
2023/10/17 07:16:13;;;;;;;0.03;0.03;;;8.10;99.90;;;;;;5009199;28;20057;-66
2023/10/17 07:18:44;;;;;;;0.10;0.10;;;8.20;99.90;;;;;;5004491;28;20045;-66
2023/10/17 07:23:42;;;;;;;0.00;0.00;;;8.30;99.90;;;;;;5010172;28;20049;-66
2023/10/17 07:26:41;;;;;;;0.20;0.20;;;8.40;99.90;;;;;;5004908;28;20046;-66
2023/10/17 07:29:00;;;;;;;0.00;0.00;;;8.40;99.90;;;;;;5000654;28;20109;-67
2023/10/17 07:31:25;;;;;;;0.10;0.10;;;8.50;99.90;;;;;;5009879;28;20058;-67
2023/10/17 07:36:34;;;;;;;0.10;0.10;;;8.50;99.90;;;;;;5004310;28;20088;-67
2023/10/17 07:39:05;;;;;;;0.10;0.10;;;8.60;99.90;;;;;;5010289;28;20045;-67
2023/10/17 07:41:37;;;;;;;0.00;0.00;;;8.60;99.90;;;;;;5004761;28;20096;-66
2023/10/17 07:44:19;;;;;;;0.00;0.00;;;8.70;99.90;;;;;;5000128;28;20670;-67
2023/10/17 07:46:48;;;;;;;0.10;0.10;;;8.70;99.90;;;;;;5008579;28;20038;-67
2023/10/17 07:49:16;;;;;;;0.05;0.05;;;8.70;99.90;;;;;;4998181;28;20085;-68
2023/10/17 07:51:42;;;;;;;0.20;0.20;;;8.80;99.90;;;;;;5004143;28;20046;-67
2023/10/17 07:54:08;;;;;;;0.10;0.10;;;8.90;99.90;;;;;;5005687;28;20457;-68
2023/10/17 07:56:34;;;;;;;0.20;0.20;;;8.90;99.90;;;;;;5006696;28;20058;-67
2023/10/17 07:59:08;;;;;;;0.08;0.08;;;8.90;99.90;;;;;;5003288;28;20046;-67
2023/10/17 08:01:44;;;;;;;0.10;0.10;;;8.90;99.90;;;;;;4997717;28;20101;-67
2023/10/17 08:04:17;;;;;;;0.10;0.10;;;9.00;99.90;;;;;;5001380;28;20052;-67
2023/10/17 08:06:46;;;;;;;0.10;0.10;;;9.00;99.90;;;;;;5016578;28;20060;-67
2023/10/17 08:09:24;;;;;;;0.55;0.55;;;9.10;99.90;;;;;;5001140;28;20037;-67
2023/10/17 08:11:59;;;;;;;0.00;0.00;;;9.20;99.90;;;;;;5009011;28;20057;-67
2023/10/17 08:14:34;;;;;;;0.08;0.08;;;9.20;99.90;;;;;;4996446;28;20034;-67
2023/10/17 08:17:00;;;;;;;0.20;0.20;;;9.30;99.90;;;;;;4999093;28;20177;-67
2023/10/17 08:19:54;;;;;;;0.10;0.10;;;9.30;99.90;;;;;;5000914;28;20139;-66
2023/10/17 08:22:17;;;;;;;0.10;0.10;;;9.30;99.90;;;;;;5002739;28;20053;-67
2023/10/17 08:24:46;;;;;;;0.10;0.10;;;9.40;99.90;;;;;;5006609;28;20038;-67
2023/10/17 08:27:41;;;;;;;0.30;0.30;;;9.40;99.90;;;;;;4996096;28;20050;-67
2023/10/17 08:30:23;;;;;;;0.00;0.00;;;9.40;99.90;;;;;;4996027;28;20129;-67
2023/10/17 08:33:09;;;;;;;0.10;0.10;;;9.50;99.90;;;;;;4996181;28;20057;-67
2023/10/17 08:35:39;;;;;;;0.55;0.30;;;9.50;99.90;;;;;;5002592;28;20438;-67
2023/10/17 08:38:12;;;;;;;0.10;0.10;;;9.60;99.90;;;;;;5006728;28;20107;-67
2023/10/17 08:43:14;;;;;;;0.20;0.20;;;9.70;99.90;;;;;;5004442;28;20060;-67
2023/10/17 08:45:41;;;;;;;0.10;0.10;;;9.80;99.90;;;;;;5001759;28;20057;-67
2023/10/17 08:48:10;;;;;;;0.10;0.10;;;9.80;99.90;;;;;;5009777;28;20052;-67
2023/10/17 08:50:39;;;;;;;0.10;0.10;;;9.80;99.90;;;;;;5001132;28;20052;-66
2023/10/17 08:53:21;;;;;;;0.10;0.10;;;9.80;99.90;;;;;;5002900;28;20474;-67
2023/10/17 08:55:51;;;;;;;0.20;0.20;;;9.90;99.90;;;;;;5001917;28;20050;-67
2023/10/17 08:58:17;;;;;;;0.10;0.10;;;9.80;99.90;;;;;;4999321;28;20101;-67
2023/10/17 09:03:28;;;;;;;0.00;0.00;;;9.90;99.90;;;;;;5007025;28;20073;-67
2023/10/17 09:11:41;;;;;;;0.10;0.10;;;10.00;99.90;;;;;;5003200;28;20053;-66
2023/10/17 09:14:27;;;;;;;0.10;0.10;;;10.10;99.90;;;;;;5002599;28;20054;-68
2023/10/17 09:19:52;;;;;;;0.00;0.00;;;10.20;99.90;;;;;;5000128;28;20073;-67
2023/10/17 09:22:40;;;;;;;0.00;0.00;;;10.20;99.90;;;;;;5006626;28;20489;-67
2023/10/17 09:25:26;;;;;;;0.00;0.00;;;11.10;99.90;;;;;;4996761;28;20038;-67
2023/10/17 09:27:53;;;;;;;0.10;0.10;;;12.30;99.90;;;;;;5002077;28;20140;-67
2023/10/17 09:30:19;;;;;;;0.10;0.10;;;13.20;99.90;;;;;;5002553;28;20061;-67
2023/10/17 09:32:44;;;;;;;0.10;0.10;;;13.80;99.90;;;;;;4998428;28;20048;-67
2023/10/17 09:35:11;;;;;;;0.00;0.00;;;14.60;99.90;;;;;;5002043;28;20401;-68
2023/10/17 09:37:43;;;;;;;0.10;0.10;;;14.70;99.90;;;;;;5007555;28;20533;-67
2023/10/17 09:40:14;;;;;;;0.10;0.10;;;15.00;99.90;;;;;;5009469;28;20052;-67
2023/10/17 09:42:44;;;;;;;0.00;0.00;;;15.30;99.90;;;;;;5000143;28;20076;-67
2023/10/17 09:45:11;;;;;;;0.10;0.10;;;14.80;99.90;;;;;;5007979;28;20386;-68
2023/10/17 09:47:40;;;;;;;0.15;0.15;;;14.90;99.90;;;;;;5008209;28;20046;-68
2023/10/17 09:50:10;;;;;;;0.10;0.10;;;14.60;99.90;;;;;;5003973;28;20509;-68
2023/10/17 09:52:37;;;;;;;0.00;0.00;;;14.50;99.90;;;;;;5004567;28;20041;-68
2023/10/17 09:55:06;;;;;;;0.10;0.10;;;14.40;99.90;;;;;;5008132;28;20080;-68
2023/10/17 09:57:35;;;;;;;0.00;0.00;;;14.10;99.90;;;;;;4999562;28;20140;-68
2023/10/17 10:00:16;;;;;;;0.03;0.03;;;14.00;99.90;;;;;;4999581;28;20050;-67
2023/10/17 10:02:43;;;;;;;0.10;0.10;;;13.80;99.90;;;;;;5001464;28;20088;-67
2023/10/17 10:05:24;;;;;;;0.47;0.47;;;13.30;99.90;;;;;;4999784;28;20042;-67
2023/10/17 10:07:50;;;;;;;0.10;0.10;;;13.00;99.90;;;;;;5008454;28;20387;-67
2023/10/17 10:10:51;;;;;;;0.10;0.10;;;12.80;99.90;;;;;;4996899;28;20074;-67
2023/10/17 10:13:17;;;;;;;0.13;0.13;;;12.60;99.90;;;;;;4978282;28;20089;-67
2023/10/17 10:15:59;;;;;;;0.00;0.00;;;12.50;99.90;;;;;;5005773;28;20084;-67
2023/10/17 10:18:38;;;;;;;0.00;0.00;;;12.30;99.90;;;;;;5005061;28;20053;-67
2023/10/17 10:21:05;;;;;;;0.10;0.10;;;12.20;99.90;;;;;;5007488;28;20553;-67
2023/10/17 10:23:35;;;;;;;0.00;0.00;;;12.10;99.90;;;;;;4998049;28;20125;-67
2023/10/17 10:26:14;;;;;;;0.00;0.00;;;12.00;99.90;;;;;;4995125;28;20046;-67
2023/10/17 10:28:43;;;;;;;0.10;0.10;;;12.00;99.90;;;;;;5010188;28;20070;-67
2023/10/17 10:31:21;;;;;;;3.72;0.63;;;12.00;99.90;;;;;;5004561;28;20136;-67
2023/10/17 10:33:49;;;;;;;0.10;0.10;;;11.90;99.90;;;;;;5006440;28;20084;-67
2023/10/17 10:36:18;;;;;;;0.10;0.10;;;12.00;99.90;;;;;;5009661;28;20049;-67
2023/10/17 10:38:45;;;;;;;0.10;0.10;;;12.10;99.90;;;;;;5001727;28;20398;-67
2023/10/17 10:41:17;;;;;;;2.17;1.08;;;12.00;99.90;;;;;;5010561;28;20048;-66
2023/10/17 10:43:44;;;;;;;0.00;0.00;;;12.00;99.90;;;;;;5000815;28;20092;-67
2023/10/17 10:46:11;;;;;;;0.10;0.10;;;12.00;99.90;;;;;;5007118;28;20070;-67
2023/10/17 10:48:45;;;;;;;0.10;0.10;;;12.10;99.90;;;;;;5011274;28;20052;-67
2023/10/17 10:51:15;;;;;;;0.00;0.00;;;12.10;99.90;;;;;;5003962;28;20034;-67
2023/10/17 10:53:41;;;;;;;0.10;0.10;;;12.10;99.90;;;;;;4996556;28;20054;-67
2023/10/17 10:56:09;;;;;;;0.00;0.00;;;12.10;99.90;;;;;;5004388;28;20045;-67
2023/10/17 10:58:42;;;;;;;0.00;0.00;;;12.10;99.90;;;;;;5002146;28;20064;-66
2023/10/17 11:01:08;;;;;;;0.00;0.00;;;12.20;99.90;;;;;;5005041;28;20092;-66
2023/10/17 11:03:44;;;;;;;7.90;0.90;;;12.30;99.90;;;;;;5000845;28;20041;-66
2023/10/17 11:06:10;;;;;;;0.10;0.10;;;12.30;99.90;;;;;;5000495;28;20441;-67
2023/10/17 11:08:36;;;;;;;0.00;0.00;;;12.40;99.90;;;;;;4998216;28;20050;-67
2023/10/17 11:11:05;;;;;;;0.15;0.15;;;12.50;99.90;;;;;;5002222;28;20053;-67
2023/10/17 11:13:39;;;;;;;0.10;0.10;;;12.80;99.90;;;;;;5003167;28;20053;-67
2023/10/17 11:16:06;;;;;;;0.20;0.20;;;13.00;99.90;;;;;;5003365;28;20486;-67
2023/10/17 11:18:35;;;;;;;0.10;0.10;;;13.40;99.90;;;;;;4998498;28;20119;-67
2023/10/17 11:21:02;;;;;;;0.10;0.10;;;13.60;99.90;;;;;;5006613;28;20042;-67
2023/10/17 11:23:29;;;;;;;0.10;0.10;;;14.10;99.90;;;;;;5009608;28;20542;-64
2023/10/17 11:25:59;;;;;;;0.10;0.10;;;14.40;99.90;;;;;;5000704;28;20050;-64
2023/10/17 11:28:29;;;;;;;0.00;0.00;;;14.70;99.90;;;;;;4992587;28;20406;-64
2023/10/17 11:30:58;;;;;;;0.00;0.00;;;14.90;99.90;;;;;;5004364;28;20482;-64
2023/10/17 11:33:37;;;;;;;0.00;0.00;;;15.50;99.90;;;;;;5009777;28;20052;-64
2023/10/17 11:36:12;;;;;;;0.10;0.10;;;15.90;99.90;;;;;;5002291;28;20081;-64
2023/10/17 11:38:40;;;;;;;0.10;0.10;;;16.00;99.90;;;;;;5003549;28;20042;-64
2023/10/17 11:41:09;;;;;;;0.00;0.00;;;16.10;99.90;;;;;;5003283;28;20489;-64
2023/10/17 11:43:36;;;;;;;0.00;0.00;;;16.50;99.90;;;;;;5004236;28;20058;-64
2023/10/17 11:46:03;;;;;;;0.10;0.10;;;16.60;99.90;;;;;;4995562;28;20445;-64
2023/10/17 11:48:39;;;;;;;0.00;0.00;;;16.70;99.90;;;;;;5008343;28;20061;-64
2023/10/17 11:51:06;;;;;;;0.00;0.00;;;16.90;99.90;;;;;;5001354;28;20478;-64
2023/10/17 11:53:33;;;;;;;0.10;0.10;;;16.80;99.90;;;;;;5002523;28;20132;-64
2023/10/17 11:55:58;;;;;;;0.10;0.10;;;16.80;99.90;;;;;;5006828;28;20054;-64
2023/10/17 11:58:25;;;;;;;0.10;0.10;;;17.40;99.90;;;;;;4996384;28;20046;-64
2023/10/17 12:00:51;;;;;;;0.10;0.10;;;17.60;99.90;;;;;;5008122;28;20112;-64
2023/10/17 12:03:20;;;;;;;0.20;0.20;;;17.40;99.90;;;;;;4997323;28;20042;-64
2023/10/17 12:05:48;;;;;;;0.08;0.08;;;17.20;99.90;;;;;;5004857;28;20054;-64
2023/10/17 12:08:21;;;;;;;0.17;0.13;;;17.70;99.90;;;;;;5006360;28;20041;-64
2023/10/17 12:10:49;;;;;;;0.10;0.10;;;17.80;99.90;;;;;;5002735;28;20054;-64
2023/10/17 12:13:17;;;;;;;0.00;0.00;;;17.80;99.90;;;;;;5007520;28;20060;-64
2023/10/17 12:15:46;;;;;;;0.00;0.00;;;17.80;99.90;;;;;;5007527;28;20092;-64
2023/10/17 12:18:12;;;;;;;0.17;0.17;;;17.80;99.90;;;;;;5000046;28;20132;-64
2023/10/17 12:20:40;;;;;;;0.10;0.10;;;17.70;99.90;;;;;;4992324;28;20498;-64
2023/10/17 12:23:10;;;;;;;0.00;0.00;;;17.90;99.90;;;;;;5001473;28;20054;-63
2023/10/17 12:25:36;;;;;;;0.10;0.10;;;18.10;99.90;;;;;;5004937;28;20093;-64
2023/10/17 12:28:06;;;;;;;1.48;0.50;;;18.40;99.90;;;;;;4998671;28;20154;-64
2023/10/17 12:30:35;;;;;;;0.28;0.28;;;17.70;99.90;;;;;;4998592;28;20054;-63
2023/10/17 12:33:01;;;;;;;0.20;0.20;;;18.40;99.90;;;;;;5006878;28;20433;-63
2023/10/17 12:35:30;;;;;;;0.00;0.00;;;18.80;99.90;;;;;;5006748;28;20097;-63
2023/10/17 12:37:59;;;;;;;0.00;0.00;;;19.10;99.90;;;;;;5005403;28;20030;-64
2023/10/17 12:40:26;;;;;;;0.10;0.10;;;19.10;99.90;;;;;;4997148;28;20053;-64
2023/10/17 12:42:53;;;;;;;0.35;0.30;;;19.30;99.90;;;;;;5004927;28;20046;-64
2023/10/17 12:45:19;;;;;;;0.00;0.00;;;19.50;99.90;;;;;;5000689;28;20046;-64
2023/10/17 12:47:46;;;;;;;0.00;0.00;;;19.60;99.90;;;;;;4996676;28;20060;-64
2023/10/17 12:50:12;;;;;;;1.02;0.93;;;19.70;99.90;;;;;;5010110;28;20505;-64
2023/10/17 12:52:39;;;;;;;0.00;0.00;;;19.20;99.90;;;;;;5007706;28;20441;-64
2023/10/17 12:55:05;;;;;;;0.00;0.00;;;19.20;99.90;;;;;;4996248;28;20046;-63
2023/10/17 12:57:31;;;;;;;0.32;0.32;;;19.60;99.90;;;;;;5003237;28;20058;-63
2023/10/17 12:59:59;;;;;;;0.77;0.50;;;19.80;99.90;;;;;;5002725;28;20046;-63
2023/10/17 13:02:29;;;;;;;0.20;0.20;;;19.50;99.90;;;;;;4996318;28;20053;-63
2023/10/17 13:04:55;;;;;;;0.85;0.40;;;19.60;99.90;;;;;;5006946;28;20042;-63
2023/10/17 13:07:23;;;;;;;0.00;0.00;;;19.50;99.90;;;;;;5004485;28;20486;-63
2023/10/17 13:09:48;;;;;;;0.00;0.00;;;19.50;99.90;;;;;;4999114;28;20482;-63
2023/10/17 13:12:14;;;;;;;0.05;0.05;;;19.70;99.90;;;;;;4997613;28;20053;-64
2023/10/17 13:14:40;;;;;;;0.00;0.00;;;19.70;99.90;;;;;;4998363;28;20047;-63
2023/10/17 13:17:11;;;;;;;0.00;0.00;;;19.60;99.90;;;;;;5007482;28;20050;-63
2023/10/17 13:19:40;;;;;;;0.00;0.00;;;19.90;99.90;;;;;;4997903;28;20410;-64
2023/10/17 13:22:08;;;;;;;0.00;0.00;;;19.70;99.90;;;;;;5003039;28;20051;-64
2023/10/17 13:24:35;;;;;;;0.00;0.00;;;19.40;99.90;;;;;;5003621;28;20041;-64
2023/10/17 13:27:04;;;;;;;0.10;0.10;;;19.60;99.90;;;;;;4998049;28;20394;-63
2023/10/17 13:29:31;;;;;;;0.00;0.00;;;19.30;99.90;;;;;;5007049;28;20077;-63
2023/10/17 13:31:57;;;;;;;0.00;0.00;;;19.00;99.90;;;;;;4999579;28;20050;-63
2023/10/17 13:34:24;;;;;;;0.00;0.00;;;19.00;99.90;;;;;;4999383;28;20050;-64
2023/10/17 13:36:50;;;;;;;0.00;0.00;;;18.90;99.90;;;;;;5008236;28;20041;-63
2023/10/17 13:39:15;;;;;;;0.10;0.10;;;19.20;99.90;;;;;;5007335;28;20050;-63
2023/10/17 13:41:41;;;;;;;0.00;0.00;;;19.00;99.90;;;;;;5006867;28;20608;-63
2023/10/17 13:44:11;;;;;;;0.00;0.00;;;18.70;99.90;;;;;;5007631;28;21111;-63
2023/10/17 13:46:36;;;;;;;0.00;0.00;;;19.10;99.90;;;;;;5003196;28;20054;-64
2023/10/17 13:49:02;;;;;;;0.00;0.00;;;19.00;99.90;;;;;;5010036;28;20049;-65
2023/10/17 13:51:34;;;;;;;0.10;0.10;;;18.70;99.90;;;;;;5012893;28;20082;-65
2023/10/17 13:54:00;;;;;;;22.10;0.57;;;18.30;99.90;;;;;;5001434;28;20887;-64
2023/10/17 13:56:27;;;;;;;0.00;0.00;;;17.80;99.90;;;;;;5008869;28;20237;-64
2023/10/17 13:58:53;;;;;;;0.00;0.00;;;17.30;99.90;;;;;;5005127;28;20119;-65
2023/10/17 14:01:27;;;;;;;0.00;0.00;;;16.90;99.90;;;;;;4999444;28;20046;-65
2023/10/17 14:03:57;;;;;;;0.10;0.10;;;16.60;99.90;;;;;;5010573;28;20501;-65
2023/10/17 14:06:27;;;;;;;0.00;0.00;;;16.30;99.90;;;;;;5009307;28;20050;-64
2023/10/17 14:08:55;;;;;;;0.10;0.10;;;15.80;99.90;;;;;;5003686;28;20092;-64
2023/10/17 14:11:20;;;;;;;0.00;0.00;;;15.70;99.90;;;;;;5012179;28;20805;-64
2023/10/17 14:13:49;;;;;;;0.00;0.00;;;15.60;99.90;;;;;;5004077;28;20099;-64
2023/10/17 14:16:15;;;;;;;0.00;0.00;;;15.30;99.90;;;;;;5008186;28;20511;-64
2023/10/17 14:18:46;;;;;;;0.15;0.15;;;15.30;99.90;;;;;;4997872;28;20490;-65
2023/10/17 14:23:57;;;;;;;0.00;0.00;;;15.00;99.90;;;;;;4999930;28;20054;-64
2023/10/17 14:26:30;;;;;;;0.00;0.00;;;14.90;99.90;;;;;;5005959;28;20410;-65
2023/10/17 14:29:02;;;;;;;0.00;0.00;;;14.80;99.90;;;;;;5003397;28;20649;-64
2023/10/17 14:31:29;;;;;;;0.00;0.00;;;14.70;99.90;;;;;;4996938;28;20076;-64
2023/10/17 14:33:55;;;;;;;0.00;0.00;;;14.70;99.90;;;;;;4998088;28;20100;-64
2023/10/17 14:36:21;;;;;;;0.00;0.00;;;14.40;99.90;;;;;;5008920;28;20390;-64
2023/10/17 14:38:48;;;;;;;0.00;0.00;;;14.40;99.90;;;;;;4999533;28;20041;-64
2023/10/17 14:41:14;;;;;;;0.22;0.22;;;14.40;99.90;;;;;;5007267;28;20453;-64
2023/10/17 14:43:43;;;;;;;0.00;0.00;;;14.30;99.90;;;;;;5002744;28;20034;-64
2023/10/17 14:46:10;;;;;;;0.00;0.00;;;14.40;99.90;;;;;;5005212;28;20509;-64
2023/10/17 14:48:36;;;;;;;1.13;0.50;;;14.40;99.90;;;;;;5011105;28;20482;-64
2023/10/17 14:51:03;;;;;;;0.00;0.00;;;14.40;99.90;;;;;;5006309;28;20042;-64
2023/10/17 14:53:28;;;;;;;27.42;0.73;;;14.10;99.90;;;;;;4995161;28;20074;-64
2023/10/17 14:55:58;;;;;;;0.00;0.00;;;14.10;99.90;;;;;;5005261;28;20069;-64
2023/10/17 14:58:24;;;;;;;0.00;0.00;;;14.00;99.90;;;;;;4999015;28;20030;-65
2023/10/17 15:00:52;;;;;;;0.25;0.25;;;13.90;99.90;;;;;;5010655;28;20413;-65
2023/10/17 15:03:19;;;;;;;0.05;0.05;;;13.90;99.90;;;;;;5005618;28;20394;-65
2023/10/17 15:05:44;;;;;;;0.00;0.00;;;14.00;99.90;;;;;;4998532;28;20523;-65
2023/10/17 15:08:11;;;;;;;0.00;0.00;;;13.90;99.90;;;;;;5010763;28;20148;-63
2023/10/17 15:10:38;;;;;;;0.35;0.35;;;13.90;99.90;;;;;;5003641;28;20584;-64
2023/10/17 15:13:04;;;;;;;0.10;0.10;;;13.90;99.90;;;;;;5005205;28;20054;-64